sensor_id;sensor_type;location;lat;lon;timestamp;temperature;humidity
52849;DHT22;38714;53.180;5.812;2024-03-29T00:01:10;8.60;99.90
52849;DHT22;38714;53.180;5.812;2024-03-29T00:03:36;8.50;99.90
52849;DHT22;38714;53.180;5.812;2024-03-29T00:06:02;8.50;99.90
52849;DHT22;38714;53.180;5.812;2024-03-29T00:08:27;8.60;99.90
52849;DHT22;38714;53.180;5.812;2024-03-29T00:10:53;8.60;99.90
52849;DHT22;38714;53.180;5.812;2024-03-29T00:13:18;8.60;99.90
52849;DHT22;38714;53.180;5.812;2024-03-29T00:15:45;8.60;99.90
52849;DHT22;38714;53.180;5.812;2024-03-29T00:18:11;8.60;99.90
52849;DHT22;38714;53.180;5.812;2024-03-29T00:20:37;8.60;99.90
52849;DHT22;38714;53.180;5.812;2024-03-29T00:23:02;8.70;99.90
52849;DHT22;38714;53.180;5.812;2024-03-29T00:25:28;8.70;99.90
52849;DHT22;38714;53.180;5.812;2024-03-29T00:27:53;8.70;99.90
52849;DHT22;38714;53.180;5.812;2024-03-29T00:30:20;8.70;99.90
52849;DHT22;38714;53.180;5.812;2024-03-29T00:32:46;8.70;99.90
52849;DHT22;38714;53.180;5.812;2024-03-29T00:35:11;8.70;99.90
52849;DHT22;38714;53.180;5.812;2024-03-29T00:37:39;8.70;99.90
52849;DHT22;38714;53.180;5.812;2024-03-29T00:40:05;8.70;99.90
52849;DHT22;38714;53.180;5.812;2024-03-29T00:42:31;8.70;99.90
52849;DHT22;38714;53.180;5.812;2024-03-29T00:44:57;8.70;99.90
52849;DHT22;38714;53.180;5.812;2024-03-29T00:47:22;8.70;99.90
52849;DHT22;38714;53.180;5.812;2024-03-29T00:49:48;8.70;99.90
52849;DHT22;38714;53.180;5.812;2024-03-29T00:52:13;8.70;99.90
52849;DHT22;38714;53.180;5.812;2024-03-29T00:54:39;8.70;99.90
52849;DHT22;38714;53.180;5.812;2024-03-29T00:57:05;8.70;99.90
52849;DHT22;38714;53.180;5.812;2024-03-29T00:59:32;8.70;99.90
52849;DHT22;38714;53.180;5.812;2024-03-29T01:01:57;8.70;99.90
52849;DHT22;38714;53.180;5.812;2024-03-29T01:04:23;8.70;99.90
52849;DHT22;38714;53.180;5.812;2024-03-29T01:06:48;8.70;99.90
52849;DHT22;38714;53.180;5.812;2024-03-29T01:09:14;8.60;99.90
52849;DHT22;38714;53.180;5.812;2024-03-29T01:11:40;8.60;99.90
52849;DHT22;38714;53.180;5.812;2024-03-29T01:14:06;8.60;99.90
52849;DHT22;38714;53.180;5.812;2024-03-29T01:16:32;8.60;99.90
52849;DHT22;38714;53.180;5.812;2024-03-29T01:18:58;8.60;99.90
52849;DHT22;38714;53.180;5.812;2024-03-29T01:21:27;8.60;99.90
52849;DHT22;38714;53.180;5.812;2024-03-29T01:23:53;8.60;99.90
52849;DHT22;38714;53.180;5.812;2024-03-29T01:26:19;8.60;99.90
52849;DHT22;38714;53.180;5.812;2024-03-29T01:28:44;8.60;99.90
52849;DHT22;38714;53.180;5.812;2024-03-29T01:31:10;8.60;99.90
52849;DHT22;38714;53.180;5.812;2024-03-29T01:33:37;8.60;99.90
52849;DHT22;38714;53.180;5.812;2024-03-29T01:36:12;8.50;99.90
52849;DHT22;38714;53.180;5.812;2024-03-29T01:38:38;8.50;99.90
52849;DHT22;38714;53.180;5.812;2024-03-29T01:41:03;8.50;99.90
52849;DHT22;38714;53.180;5.812;2024-03-29T01:43:29;8.50;99.90
52849;DHT22;38714;53.180;5.812;2024-03-29T01:45:56;8.40;99.90
52849;DHT22;38714;53.180;5.812;2024-03-29T01:48:26;8.40;99.90
52849;DHT22;38714;53.180;5.812;2024-03-29T01:50:56;8.30;99.90
52849;DHT22;38714;53.180;5.812;2024-03-29T01:53:23;8.30;99.90
52849;DHT22;38714;53.180;5.812;2024-03-29T01:55:49;8.30;99.90
52849;DHT22;38714;53.180;5.812;2024-03-29T01:58:15;8.20;99.90
52849;DHT22;38714;53.180;5.812;2024-03-29T02:00:52;8.20;99.90
52849;DHT22;38714;53.180;5.812;2024-03-29T02:03:18;8.10;99.90
52849;DHT22;38714;53.180;5.812;2024-03-29T02:05:45;8.10;99.90
52849;DHT22;38714;53.180;5.812;2024-03-29T02:08:11;8.10;99.90
52849;DHT22;38714;53.180;5.812;2024-03-29T02:10:37;8.10;99.90
52849;DHT22;38714;53.180;5.812;2024-03-29T02:13:03;8.10;99.90
52849;DHT22;38714;53.180;5.812;2024-03-29T02:15:30;8.10;99.90
52849;DHT22;38714;53.180;5.812;2024-03-29T02:17:56;8.10;99.90
52849;DHT22;38714;53.180;5.812;2024-03-29T02:20:22;8.10;99.90
52849;DHT22;38714;53.180;5.812;2024-03-29T02:22:54;8.10;99.90
52849;DHT22;38714;53.180;5.812;2024-03-29T02:25:20;8.10;99.90
52849;DHT22;38714;53.180;5.812;2024-03-29T02:27:47;8.00;99.90
52849;DHT22;38714;53.180;5.812;2024-03-29T02:30:14;8.00;99.90
52849;DHT22;38714;53.180;5.812;2024-03-29T02:32:40;8.00;99.90
52849;DHT22;38714;53.180;5.812;2024-03-29T02:35:06;7.90;99.90
52849;DHT22;38714;53.180;5.812;2024-03-29T02:37:32;7.90;99.90
52849;DHT22;38714;53.180;5.812;2024-03-29T02:39:58;7.90;99.90
52849;DHT22;38714;53.180;5.812;2024-03-29T02:42:23;7.80;99.90
52849;DHT22;38714;53.180;5.812;2024-03-29T02:44:49;7.80;99.90
52849;DHT22;38714;53.180;5.812;2024-03-29T02:47:14;7.80;99.90
52849;DHT22;38714;53.180;5.812;2024-03-29T02:49:40;7.80;99.90
52849;DHT22;38714;53.180;5.812;2024-03-29T02:52:06;7.80;99.90
52849;DHT22;38714;53.180;5.812;2024-03-29T02:54:31;7.90;99.90
52849;DHT22;38714;53.180;5.812;2024-03-29T02:56:57;7.90;99.90
52849;DHT22;38714;53.180;5.812;2024-03-29T02:59:22;7.90;99.90
52849;DHT22;38714;53.180;5.812;2024-03-29T03:01:48;7.90;99.90
52849;DHT22;38714;53.180;5.812;2024-03-29T03:04:13;7.90;99.90
52849;DHT22;38714;53.180;5.812;2024-03-29T03:06:39;7.90;99.90
52849;DHT22;38714;53.180;5.812;2024-03-29T03:09:04;7.90;99.90
52849;DHT22;38714;53.180;5.812;2024-03-29T03:11:49;7.90;99.90
52849;DHT22;38714;53.180;5.812;2024-03-29T03:14:14;8.00;99.90
52849;DHT22;38714;53.180;5.812;2024-03-29T03:16:40;8.00;99.90
52849;DHT22;38714;53.180;5.812;2024-03-29T03:19:05;8.00;99.90
52849;DHT22;38714;53.180;5.812;2024-03-29T03:21:31;8.00;99.90
52849;DHT22;38714;53.180;5.812;2024-03-29T03:23:56;8.00;99.90
52849;DHT22;38714;53.180;5.812;2024-03-29T03:26:22;8.00;99.90
52849;DHT22;38714;53.180;5.812;2024-03-29T03:28:47;8.00;99.90
52849;DHT22;38714;53.180;5.812;2024-03-29T03:31:13;8.00;99.90
52849;DHT22;38714;53.180;5.812;2024-03-29T03:33:39;8.00;99.90
52849;DHT22;38714;53.180;5.812;2024-03-29T03:36:05;8.00;99.90
52849;DHT22;38714;53.180;5.812;2024-03-29T03:38:31;8.00;99.90
52849;DHT22;38714;53.180;5.812;2024-03-29T03:40:58;8.00;99.90
52849;DHT22;38714;53.180;5.812;2024-03-29T03:43:23;8.00;99.90
52849;DHT22;38714;53.180;5.812;2024-03-29T03:45:49;8.00;99.90
52849;DHT22;38714;53.180;5.812;2024-03-29T03:48:14;8.00;99.90
52849;DHT22;38714;53.180;5.812;2024-03-29T03:50:40;8.00;99.90
52849;DHT22;38714;53.180;5.812;2024-03-29T03:53:07;8.00;99.90
52849;DHT22;38714;53.180;5.812;2024-03-29T03:55:39;8.00;99.90
52849;DHT22;38714;53.180;5.812;2024-03-29T03:58:04;8.00;99.90
52849;DHT22;38714;53.180;5.812;2024-03-29T04:00:30;8.00;99.90
52849;DHT22;38714;53.180;5.812;2024-03-29T04:02:56;8.00;99.90
52849;DHT22;38714;53.180;5.812;2024-03-29T04:05:22;8.00;99.90
52849;DHT22;38714;53.180;5.812;2024-03-29T04:07:48;8.00;99.90
52849;DHT22;38714;53.180;5.812;2024-03-29T04:10:14;8.00;99.90
52849;DHT22;38714;53.180;5.812;2024-03-29T04:12:39;8.00;99.90
52849;DHT22;38714;53.180;5.812;2024-03-29T04:15:05;8.00;99.90
52849;DHT22;38714;53.180;5.812;2024-03-29T04:17:32;8.00;99.90
52849;DHT22;38714;53.180;5.812;2024-03-29T04:19:59;8.00;99.90
52849;DHT22;38714;53.180;5.812;2024-03-29T04:22:30;8.00;99.90
52849;DHT22;38714;53.180;5.812;2024-03-29T04:24:56;8.00;99.90
52849;DHT22;38714;53.180;5.812;2024-03-29T04:27:22;8.00;99.90
52849;DHT22;38714;53.180;5.812;2024-03-29T04:29:51;8.00;99.90
52849;DHT22;38714;53.180;5.812;2024-03-29T04:32:17;8.00;99.90
52849;DHT22;38714;53.180;5.812;2024-03-29T04:34:42;8.00;99.90
52849;DHT22;38714;53.180;5.812;2024-03-29T04:37:08;8.10;99.90
52849;DHT22;38714;53.180;5.812;2024-03-29T04:39:33;8.10;99.90
52849;DHT22;38714;53.180;5.812;2024-03-29T04:41:59;8.10;99.90
52849;DHT22;38714;53.180;5.812;2024-03-29T04:44:25;8.20;99.90
52849;DHT22;38714;53.180;5.812;2024-03-29T04:46:52;8.10;99.90
52849;DHT22;38714;53.180;5.812;2024-03-29T04:49:22;8.10;99.90
52849;DHT22;38714;53.180;5.812;2024-03-29T04:52:15;8.20;99.90
52849;DHT22;38714;53.180;5.812;2024-03-29T04:54:40;8.20;99.90
52849;DHT22;38714;53.180;5.812;2024-03-29T04:57:06;8.20;99.90
52849;DHT22;38714;53.180;5.812;2024-03-29T04:59:32;8.20;99.90
52849;DHT22;38714;53.180;5.812;2024-03-29T05:02:01;8.30;99.90
52849;DHT22;38714;53.180;5.812;2024-03-29T05:04:28;8.30;99.90
52849;DHT22;38714;53.180;5.812;2024-03-29T05:06:54;8.30;99.90
52849;DHT22;38714;53.180;5.812;2024-03-29T05:09:20;8.30;99.90
52849;DHT22;38714;53.180;5.812;2024-03-29T05:11:46;8.40;99.90
52849;DHT22;38714;53.180;5.812;2024-03-29T05:14:14;8.30;99.90
52849;DHT22;38714;53.180;5.812;2024-03-29T05:16:40;8.40;99.90
52849;DHT22;38714;53.180;5.812;2024-03-29T05:19:06;8.40;99.90
52849;DHT22;38714;53.180;5.812;2024-03-29T05:21:32;8.40;99.90
52849;DHT22;38714;53.180;5.812;2024-03-29T05:23:57;8.40;99.90
52849;DHT22;38714;53.180;5.812;2024-03-29T05:26:23;8.40;99.90
52849;DHT22;38714;53.180;5.812;2024-03-29T05:28:49;8.40;99.90
52849;DHT22;38714;53.180;5.812;2024-03-29T05:31:15;8.30;99.90
52849;DHT22;38714;53.180;5.812;2024-03-29T05:33:43;8.30;99.90
52849;DHT22;38714;53.180;5.812;2024-03-29T05:36:10;8.30;99.90
52849;DHT22;38714;53.180;5.812;2024-03-29T05:38:39;8.30;99.90
52849;DHT22;38714;53.180;5.812;2024-03-29T05:41:04;8.30;99.90
52849;DHT22;38714;53.180;5.812;2024-03-29T05:43:30;8.40;99.90
52849;DHT22;38714;53.180;5.812;2024-03-29T05:45:56;8.40;99.90
52849;DHT22;38714;53.180;5.812;2024-03-29T05:48:22;8.40;99.90
52849;DHT22;38714;53.180;5.812;2024-03-29T05:50:47;8.40;99.90
52849;DHT22;38714;53.180;5.812;2024-03-29T05:53:13;8.30;99.90
52849;DHT22;38714;53.180;5.812;2024-03-29T05:55:39;8.30;99.90
52849;DHT22;38714;53.180;5.812;2024-03-29T05:58:04;8.30;99.90
52849;DHT22;38714;53.180;5.812;2024-03-29T06:00:32;8.30;99.90
52849;DHT22;38714;53.180;5.812;2024-03-29T06:03:00;8.30;99.90
52849;DHT22;38714;53.180;5.812;2024-03-29T06:05:31;8.30;99.90
52849;DHT22;38714;53.180;5.812;2024-03-29T06:07:56;8.40;99.90
52849;DHT22;38714;53.180;5.812;2024-03-29T06:10:23;8.40;99.90
52849;DHT22;38714;53.180;5.812;2024-03-29T06:12:49;8.40;99.90
52849;DHT22;38714;53.180;5.812;2024-03-29T06:15:14;8.40;99.90
52849;DHT22;38714;53.180;5.812;2024-03-29T06:17:58;8.40;99.90
52849;DHT22;38714;53.180;5.812;2024-03-29T06:20:24;8.40;99.90
52849;DHT22;38714;53.180;5.812;2024-03-29T06:22:50;8.40;99.90
52849;DHT22;38714;53.180;5.812;2024-03-29T06:25:16;8.50;99.90
52849;DHT22;38714;53.180;5.812;2024-03-29T06:27:42;8.50;99.90
52849;DHT22;38714;53.180;5.812;2024-03-29T06:30:13;8.60;99.90
52849;DHT22;38714;53.180;5.812;2024-03-29T06:32:39;8.60;99.90
52849;DHT22;38714;53.180;5.812;2024-03-29T06:35:05;8.60;99.90
52849;DHT22;38714;53.180;5.812;2024-03-29T06:37:31;8.70;99.90
52849;DHT22;38714;53.180;5.812;2024-03-29T06:39:57;8.70;99.90
52849;DHT22;38714;53.180;5.812;2024-03-29T06:42:22;8.70;99.90
52849;DHT22;38714;53.180;5.812;2024-03-29T06:44:48;8.70;99.90
52849;DHT22;38714;53.180;5.812;2024-03-29T06:47:14;8.70;99.90
52849;DHT22;38714;53.180;5.812;2024-03-29T06:49:40;8.70;99.90
52849;DHT22;38714;53.180;5.812;2024-03-29T06:52:06;8.70;99.90
52849;DHT22;38714;53.180;5.812;2024-03-29T06:54:31;8.70;99.90
52849;DHT22;38714;53.180;5.812;2024-03-29T06:56:58;8.80;99.90
52849;DHT22;38714;53.180;5.812;2024-03-29T06:59:24;8.80;99.90
52849;DHT22;38714;53.180;5.812;2024-03-29T07:01:51;8.80;99.90
52849;DHT22;38714;53.180;5.812;2024-03-29T07:04:20;8.80;99.90
52849;DHT22;38714;53.180;5.812;2024-03-29T07:06:46;8.90;99.90
52849;DHT22;38714;53.180;5.812;2024-03-29T07:09:22;8.90;99.90
52849;DHT22;38714;53.180;5.812;2024-03-29T07:11:49;8.90;99.90
52849;DHT22;38714;53.180;5.812;2024-03-29T07:14:16;8.90;99.90
52849;DHT22;38714;53.180;5.812;2024-03-29T07:16:42;9.00;99.90
52849;DHT22;38714;53.180;5.812;2024-03-29T07:19:08;8.90;99.90
52849;DHT22;38714;53.180;5.812;2024-03-29T07:21:34;9.00;99.90
52849;DHT22;38714;53.180;5.812;2024-03-29T07:24:00;9.00;99.90
52849;DHT22;38714;53.180;5.812;2024-03-29T07:26:25;9.00;99.90
52849;DHT22;38714;53.180;5.812;2024-03-29T07:28:51;9.10;99.90
52849;DHT22;38714;53.180;5.812;2024-03-29T07:31:17;9.10;99.90
52849;DHT22;38714;53.180;5.812;2024-03-29T07:33:42;9.20;99.90
52849;DHT22;38714;53.180;5.812;2024-03-29T07:36:08;9.20;99.90
52849;DHT22;38714;53.180;5.812;2024-03-29T07:38:36;9.20;99.90
52849;DHT22;38714;53.180;5.812;2024-03-29T07:41:02;9.20;99.90
52849;DHT22;38714;53.180;5.812;2024-03-29T07:43:40;9.20;99.90
52849;DHT22;38714;53.180;5.812;2024-03-29T07:46:07;9.30;99.90
52849;DHT22;38714;53.180;5.812;2024-03-29T07:48:34;9.30;99.90
52849;DHT22;38714;53.180;5.812;2024-03-29T07:51:00;9.30;99.90
52849;DHT22;38714;53.180;5.812;2024-03-29T07:53:26;9.30;99.90
52849;DHT22;38714;53.180;5.812;2024-03-29T07:55:51;9.30;99.90
52849;DHT22;38714;53.180;5.812;2024-03-29T07:58:17;9.40;99.90
52849;DHT22;38714;53.180;5.812;2024-03-29T08:00:43;9.40;99.90
52849;DHT22;38714;53.180;5.812;2024-03-29T08:03:08;9.40;99.90
52849;DHT22;38714;53.180;5.812;2024-03-29T08:05:34;9.40;99.90
52849;DHT22;38714;53.180;5.812;2024-03-29T08:08:00;9.40;99.90
52849;DHT22;38714;53.180;5.812;2024-03-29T08:10:26;9.50;99.90
52849;DHT22;38714;53.180;5.812;2024-03-29T08:12:51;9.60;99.90
52849;DHT22;38714;53.180;5.812;2024-03-29T08:15:17;9.70;99.90
52849;DHT22;38714;53.180;5.812;2024-03-29T08:17:44;9.80;99.90
52849;DHT22;38714;53.180;5.812;2024-03-29T08:20:10;9.90;99.90
52849;DHT22;38714;53.180;5.812;2024-03-29T08:22:36;9.90;99.90
52849;DHT22;38714;53.180;5.812;2024-03-29T08:25:01;10.00;99.90
52849;DHT22;38714;53.180;5.812;2024-03-29T08:27:28;10.00;99.90
52849;DHT22;38714;53.180;5.812;2024-03-29T08:29:54;10.00;99.90
52849;DHT22;38714;53.180;5.812;2024-03-29T08:32:20;9.90;99.90
52849;DHT22;38714;53.180;5.812;2024-03-29T08:34:45;9.90;99.90
52849;DHT22;38714;53.180;5.812;2024-03-29T08:37:11;10.00;99.90
52849;DHT22;38714;53.180;5.812;2024-03-29T08:39:37;10.00;99.90
52849;DHT22;38714;53.180;5.812;2024-03-29T08:42:04;10.00;99.90
52849;DHT22;38714;53.180;5.812;2024-03-29T08:44:31;10.00;99.90
52849;DHT22;38714;53.180;5.812;2024-03-29T08:46:56;10.00;99.90
52849;DHT22;38714;53.180;5.812;2024-03-29T08:49:24;10.10;99.90
52849;DHT22;38714;53.180;5.812;2024-03-29T08:51:49;10.10;99.90
52849;DHT22;38714;53.180;5.812;2024-03-29T08:54:15;10.10;99.90
52849;DHT22;38714;53.180;5.812;2024-03-29T08:56:41;10.10;99.90
52849;DHT22;38714;53.180;5.812;2024-03-29T08:59:06;10.00;99.90
52849;DHT22;38714;53.180;5.812;2024-03-29T09:01:42;10.10;99.90
52849;DHT22;38714;53.180;5.812;2024-03-29T09:04:08;10.10;99.90
52849;DHT22;38714;53.180;5.812;2024-03-29T09:06:36;10.20;99.90
52849;DHT22;38714;53.180;5.812;2024-03-29T09:09:02;10.20;99.90
52849;DHT22;38714;53.180;5.812;2024-03-29T09:11:29;10.20;99.90
52849;DHT22;38714;53.180;5.812;2024-03-29T09:13:54;10.20;99.90
52849;DHT22;38714;53.180;5.812;2024-03-29T09:16:22;10.30;99.90
52849;DHT22;38714;53.180;5.812;2024-03-29T09:18:47;10.30;99.90
52849;DHT22;38714;53.180;5.812;2024-03-29T09:21:13;10.40;99.90
52849;DHT22;38714;53.180;5.812;2024-03-29T09:23:39;10.40;99.90
52849;DHT22;38714;53.180;5.812;2024-03-29T09:26:07;10.50;99.90
52849;DHT22;38714;53.180;5.812;2024-03-29T09:28:33;10.50;99.90
52849;DHT22;38714;53.180;5.812;2024-03-29T09:31:01;10.50;99.90
52849;DHT22;38714;53.180;5.812;2024-03-29T09:33:27;10.60;99.90
52849;DHT22;38714;53.180;5.812;2024-03-29T09:35:54;10.60;99.90
52849;DHT22;38714;53.180;5.812;2024-03-29T09:38:20;10.60;99.90
52849;DHT22;38714;53.180;5.812;2024-03-29T09:40:46;10.70;99.90
52849;DHT22;38714;53.180;5.812;2024-03-29T09:43:14;10.70;99.90
52849;DHT22;38714;53.180;5.812;2024-03-29T09:45:42;10.80;99.90
52849;DHT22;38714;53.180;5.812;2024-03-29T09:48:08;10.80;99.90
52849;DHT22;38714;53.180;5.812;2024-03-29T09:50:37;10.80;99.90
52849;DHT22;38714;53.180;5.812;2024-03-29T09:53:05;10.90;99.90
52849;DHT22;38714;53.180;5.812;2024-03-29T09:55:30;10.90;99.90
52849;DHT22;38714;53.180;5.812;2024-03-29T09:57:57;10.90;99.90
52849;DHT22;38714;53.180;5.812;2024-03-29T10:00:23;10.90;99.90
52849;DHT22;38714;53.180;5.812;2024-03-29T10:02:55;11.00;99.90
52849;DHT22;38714;53.180;5.812;2024-03-29T10:05:22;11.00;99.90
52849;DHT22;38714;53.180;5.812;2024-03-29T10:07:49;11.00;99.90
52849;DHT22;38714;53.180;5.812;2024-03-29T10:10:15;11.00;99.90
52849;DHT22;38714;53.180;5.812;2024-03-29T10:12:41;11.00;99.90
52849;DHT22;38714;53.180;5.812;2024-03-29T10:15:07;11.10;99.90
52849;DHT22;38714;53.180;5.812;2024-03-29T10:17:45;11.10;99.90
52849;DHT22;38714;53.180;5.812;2024-03-29T10:20:11;11.10;99.90
52849;DHT22;38714;53.180;5.812;2024-03-29T10:22:44;11.10;99.90
52849;DHT22;38714;53.180;5.812;2024-03-29T10:25:13;11.20;99.90
52849;DHT22;38714;53.180;5.812;2024-03-29T10:27:39;11.30;99.90
52849;DHT22;38714;53.180;5.812;2024-03-29T10:30:09;11.40;99.90
52849;DHT22;38714;53.180;5.812;2024-03-29T10:32:39;11.40;99.90
52849;DHT22;38714;53.180;5.812;2024-03-29T10:35:05;11.50;99.90
52849;DHT22;38714;53.180;5.812;2024-03-29T10:37:31;11.60;99.90
52849;DHT22;38714;53.180;5.812;2024-03-29T10:40:01;11.60;99.90
52849;DHT22;38714;53.180;5.812;2024-03-29T10:42:29;11.50;99.90
52849;DHT22;38714;53.180;5.812;2024-03-29T10:44:56;11.60;99.90
52849;DHT22;38714;53.180;5.812;2024-03-29T10:47:23;11.60;99.90
52849;DHT22;38714;53.180;5.812;2024-03-29T10:49:50;11.60;99.90
52849;DHT22;38714;53.180;5.812;2024-03-29T10:52:21;11.70;99.90
52849;DHT22;38714;53.180;5.812;2024-03-29T10:54:47;11.70;99.90
52849;DHT22;38714;53.180;5.812;2024-03-29T10:57:24;11.70;99.90
52849;DHT22;38714;53.180;5.812;2024-03-29T11:00:32;11.80;99.90
52849;DHT22;38714;53.180;5.812;2024-03-29T11:02:55;11.90;99.90
52849;DHT22;38714;53.180;5.812;2024-03-29T11:05:23;11.90;99.90
52849;DHT22;38714;53.180;5.812;2024-03-29T11:07:50;12.00;99.90
52849;DHT22;38714;53.180;5.812;2024-03-29T11:10:23;12.00;99.90
52849;DHT22;38714;53.180;5.812;2024-03-29T11:15:50;12.00;99.90
52849;DHT22;38714;53.180;5.812;2024-03-29T11:18:17;12.10;99.90
52849;DHT22;38714;53.180;5.812;2024-03-29T11:20:46;12.10;99.90
52849;DHT22;38714;53.180;5.812;2024-03-29T11:23:20;12.10;99.90
52849;DHT22;38714;53.180;5.812;2024-03-29T11:25:49;12.10;99.90
52849;DHT22;38714;53.180;5.812;2024-03-29T11:28:25;12.20;99.90
52849;DHT22;38714;53.180;5.812;2024-03-29T11:30:52;12.20;99.90
52849;DHT22;38714;53.180;5.812;2024-03-29T11:36:23;12.30;99.90
52849;DHT22;38714;53.180;5.812;2024-03-29T11:38:53;12.30;99.90
52849;DHT22;38714;53.180;5.812;2024-03-29T11:41:23;12.30;99.90
52849;DHT22;38714;53.180;5.812;2024-03-29T11:43:52;12.30;99.90
52849;DHT22;38714;53.180;5.812;2024-03-29T11:46:22;12.30;99.90
52849;DHT22;38714;53.180;5.812;2024-03-29T11:48:48;12.30;99.90
52849;DHT22;38714;53.180;5.812;2024-03-29T11:51:22;12.30;99.90
52849;DHT22;38714;53.180;5.812;2024-03-29T11:53:50;12.30;99.90
52849;DHT22;38714;53.180;5.812;2024-03-29T11:56:19;12.30;99.90
52849;DHT22;38714;53.180;5.812;2024-03-29T11:58:46;12.30;99.90
52849;DHT22;38714;53.180;5.812;2024-03-29T12:01:14;12.40;99.90
52849;DHT22;38714;53.180;5.812;2024-03-29T12:03:41;12.40;99.90
52849;DHT22;38714;53.180;5.812;2024-03-29T12:06:07;12.40;99.90
52849;DHT22;38714;53.180;5.812;2024-03-29T12:08:34;12.50;99.90
52849;DHT22;38714;53.180;5.812;2024-03-29T12:11:01;12.50;99.90
52849;DHT22;38714;53.180;5.812;2024-03-29T12:13:28;12.60;99.90
52849;DHT22;38714;53.180;5.812;2024-03-29T12:15:54;12.60;99.90
52849;DHT22;38714;53.180;5.812;2024-03-29T12:18:21;12.60;99.90
52849;DHT22;38714;53.180;5.812;2024-03-29T12:20:48;12.60;99.90
52849;DHT22;38714;53.180;5.812;2024-03-29T12:23:16;12.70;99.90
52849;DHT22;38714;53.180;5.812;2024-03-29T12:25:42;12.70;99.90
52849;DHT22;38714;53.180;5.812;2024-03-29T12:28:09;12.70;99.90
52849;DHT22;38714;53.180;5.812;2024-03-29T12:30:35;12.70;99.90
52849;DHT22;38714;53.180;5.812;2024-03-29T12:33:09;12.80;99.90
52849;DHT22;38714;53.180;5.812;2024-03-29T12:35:36;12.80;99.90
52849;DHT22;38714;53.180;5.812;2024-03-29T12:38:03;12.80;99.90
52849;DHT22;38714;53.180;5.812;2024-03-29T12:40:31;12.80;99.90
52849;DHT22;38714;53.180;5.812;2024-03-29T12:43:07;12.80;99.90
52849;DHT22;38714;53.180;5.812;2024-03-29T12:45:34;12.90;99.90
52849;DHT22;38714;53.180;5.812;2024-03-29T12:48:00;12.90;99.90
52849;DHT22;38714;53.180;5.812;2024-03-29T12:50:27;12.90;99.90
52849;DHT22;38714;53.180;5.812;2024-03-29T12:53:02;12.90;99.90
52849;DHT22;38714;53.180;5.812;2024-03-29T12:55:31;12.90;99.90
52849;DHT22;38714;53.180;5.812;2024-03-29T12:57:59;12.90;99.90
52849;DHT22;38714;53.180;5.812;2024-03-29T13:00:26;12.90;99.90
52849;DHT22;38714;53.180;5.812;2024-03-29T13:02:52;12.90;99.90
52849;DHT22;38714;53.180;5.812;2024-03-29T13:05:18;12.90;99.90
52849;DHT22;38714;53.180;5.812;2024-03-29T13:07:44;12.90;99.90
52849;DHT22;38714;53.180;5.812;2024-03-29T13:10:09;13.00;99.90
52849;DHT22;38714;53.180;5.812;2024-03-29T13:12:42;12.90;99.90
52849;DHT22;38714;53.180;5.812;2024-03-29T13:15:25;12.90;99.90
52849;DHT22;38714;53.180;5.812;2024-03-29T13:17:53;12.90;99.90
52849;DHT22;38714;53.180;5.812;2024-03-29T13:20:19;12.90;99.90
52849;DHT22;38714;53.180;5.812;2024-03-29T13:22:46;12.80;99.90
52849;DHT22;38714;53.180;5.812;2024-03-29T13:25:13;12.90;99.90
52849;DHT22;38714;53.180;5.812;2024-03-29T13:27:39;12.90;99.90
52849;DHT22;38714;53.180;5.812;2024-03-29T13:30:09;12.90;99.90
52849;DHT22;38714;53.180;5.812;2024-03-29T13:32:36;12.90;99.90
52849;DHT22;38714;53.180;5.812;2024-03-29T13:35:02;13.00;99.90
52849;DHT22;38714;53.180;5.812;2024-03-29T13:37:33;13.00;99.90
52849;DHT22;38714;53.180;5.812;2024-03-29T13:39:59;13.00;99.90
52849;DHT22;38714;53.180;5.812;2024-03-29T13:42:25;13.00;99.90
52849;DHT22;38714;53.180;5.812;2024-03-29T13:44:51;13.00;99.90
52849;DHT22;38714;53.180;5.812;2024-03-29T13:47:17;13.00;99.90
52849;DHT22;38714;53.180;5.812;2024-03-29T13:49:43;13.10;99.90
52849;DHT22;38714;53.180;5.812;2024-03-29T13:52:09;13.00;99.90
52849;DHT22;38714;53.180;5.812;2024-03-29T13:54:34;13.00;99.90
52849;DHT22;38714;53.180;5.812;2024-03-29T13:57:02;13.10;99.90
52849;DHT22;38714;53.180;5.812;2024-03-29T13:59:29;13.00;99.90
52849;DHT22;38714;53.180;5.812;2024-03-29T14:01:55;13.00;99.90
52849;DHT22;38714;53.180;5.812;2024-03-29T14:04:21;13.00;99.90
52849;DHT22;38714;53.180;5.812;2024-03-29T14:06:48;13.00;99.90
52849;DHT22;38714;53.180;5.812;2024-03-29T14:09:13;13.00;99.90
52849;DHT22;38714;53.180;5.812;2024-03-29T14:11:39;13.00;99.90
52849;DHT22;38714;53.180;5.812;2024-03-29T14:14:05;13.00;99.90
52849;DHT22;38714;53.180;5.812;2024-03-29T14:16:33;13.00;99.90
52849;DHT22;38714;53.180;5.812;2024-03-29T14:18:59;13.10;99.90
52849;DHT22;38714;53.180;5.812;2024-03-29T14:21:24;13.10;99.90
52849;DHT22;38714;53.180;5.812;2024-03-29T14:23:50;13.20;99.90
52849;DHT22;38714;53.180;5.812;2024-03-29T14:26:16;13.10;99.90
52849;DHT22;38714;53.180;5.812;2024-03-29T14:28:41;13.20;99.90
52849;DHT22;38714;53.180;5.812;2024-03-29T14:31:07;13.20;99.90
52849;DHT22;38714;53.180;5.812;2024-03-29T14:33:33;13.20;99.90
52849;DHT22;38714;53.180;5.812;2024-03-29T14:35:59;13.30;99.90
52849;DHT22;38714;53.180;5.812;2024-03-29T14:38:25;13.30;99.90
52849;DHT22;38714;53.180;5.812;2024-03-29T14:40:50;13.30;99.90
52849;DHT22;38714;53.180;5.812;2024-03-29T14:43:16;13.30;99.90
52849;DHT22;38714;53.180;5.812;2024-03-29T14:45:42;13.30;99.90
52849;DHT22;38714;53.180;5.812;2024-03-29T14:48:08;13.30;99.90
52849;DHT22;38714;53.180;5.812;2024-03-29T14:50:33;13.40;99.90
52849;DHT22;38714;53.180;5.812;2024-03-29T14:52:59;13.40;99.90
52849;DHT22;38714;53.180;5.812;2024-03-29T14:55:25;13.30;99.90
52849;DHT22;38714;53.180;5.812;2024-03-29T14:57:52;13.30;99.90
52849;DHT22;38714;53.180;5.812;2024-03-29T15:00:18;13.40;99.90
52849;DHT22;38714;53.180;5.812;2024-03-29T15:02:44;13.40;99.90
52849;DHT22;38714;53.180;5.812;2024-03-29T15:05:11;13.30;99.90
52849;DHT22;38714;53.180;5.812;2024-03-29T15:07:37;13.40;99.90
52849;DHT22;38714;53.180;5.812;2024-03-29T15:10:03;13.30;99.90
52849;DHT22;38714;53.180;5.812;2024-03-29T15:12:36;13.30;99.90
52849;DHT22;38714;53.180;5.812;2024-03-29T15:15:02;13.40;99.90
52849;DHT22;38714;53.180;5.812;2024-03-29T15:17:28;13.40;99.90
52849;DHT22;38714;53.180;5.812;2024-03-29T15:19:53;13.40;99.90
52849;DHT22;38714;53.180;5.812;2024-03-29T15:22:19;13.40;99.90
52849;DHT22;38714;53.180;5.812;2024-03-29T15:24:44;13.40;99.90
52849;DHT22;38714;53.180;5.812;2024-03-29T15:27:10;13.40;99.90
52849;DHT22;38714;53.180;5.812;2024-03-29T15:29:54;13.40;99.90
52849;DHT22;38714;53.180;5.812;2024-03-29T15:32:21;13.40;99.90
52849;DHT22;38714;53.180;5.812;2024-03-29T15:34:47;13.50;99.90
52849;DHT22;38714;53.180;5.812;2024-03-29T15:37:13;13.50;99.90
52849;DHT22;38714;53.180;5.812;2024-03-29T15:39:38;13.60;99.90
52849;DHT22;38714;53.180;5.812;2024-03-29T15:42:04;13.60;99.90
52849;DHT22;38714;53.180;5.812;2024-03-29T15:44:30;13.60;99.90